Time;durP1;ratioP1;P1;durP2;ratioP2;P2;SDS_P1;SDS_P2;PMS_P1;PMS_P2;Temp;Humidity;BMP_temperature;BMP_pressure;BME280_temperature;BME280_humidity;BME280_pressure;Samples;Min_cycle;Max_cycle;Signal;HPM_P1;HPM_P2
2022/06/28 00:01:17;;;;;;;2.20;1.63;;;;;;;16.81;100.00;96724.91;4958245;28;20241;-77
2022/06/28 00:03:45;;;;;;;2.30;1.73;;;;;;;16.78;100.00;96719.13;4948870;28;20235;-77
2022/06/28 00:06:12;;;;;;;5.33;1.60;;;;;;;16.81;100.00;96719.44;4967723;28;20213;-77
2022/06/28 00:08:39;;;;;;;2.53;1.40;;;;;;;16.89;100.00;96720.88;4941366;28;20213;-77
2022/06/28 00:11:07;;;;;;;1.90;1.50;;;;;;;16.86;100.00;96718.66;4941704;28;20211;-77
2022/06/28 00:13:34;;;;;;;2.20;1.40;;;;;;;16.88;100.00;96711.03;4944046;28;20311;-77
2022/06/28 00:16:07;;;;;;;4.60;1.50;;;;;;;16.91;100.00;96705.88;4940587;28;20217;-77
2022/06/28 00:18:35;;;;;;;2.63;1.40;;;;;;;16.91;100.00;96696.88;4949568;28;20221;-77
2022/06/28 00:21:02;;;;;;;1.80;1.57;;;;;;;16.97;100.00;96706.75;4945760;28;20211;-77
2022/06/28 00:23:30;;;;;;;2.20;1.70;;;;;;;16.92;100.00;96688.44;4963612;28;20232;-77
2022/06/28 00:25:57;;;;;;;1.93;1.60;;;;;;;16.90;100.00;96681.59;4943756;28;20215;-77
2022/06/28 00:28:26;;;;;;;2.90;1.70;;;;;;;16.79;100.00;96669.78;4966509;28;20205;-77
2022/06/28 00:30:53;;;;;;;1.60;1.50;;;;;;;16.76;100.00;96666.78;4964628;28;20205;-77
2022/06/28 00:33:20;;;;;;;2.60;1.50;;;;;;;16.71;100.00;96672.16;4937996;28;20229;-77
2022/06/28 00:35:48;;;;;;;1.80;1.40;;;;;;;16.72;100.00;96677.38;4941351;28;20594;-77
2022/06/28 00:38:16;;;;;;;2.37;1.90;;;;;;;16.78;100.00;96683.69;4941527;28;20213;-77
2022/06/28 00:40:47;;;;;;;3.00;1.70;;;;;;;16.79;100.00;96677.16;4956620;28;20323;-77
2022/06/28 00:43:15;;;;;;;1.60;1.50;;;;;;;16.78;100.00;96680.94;4963741;28;20236;-77
2022/06/28 00:45:45;;;;;;;4.03;1.60;;;;;;;16.78;100.00;96687.22;4949255;28;20224;-77
2022/06/28 00:48:14;;;;;;;5.87;1.73;;;;;;;16.70;100.00;96684.97;4944775;28;20213;-77
2022/06/28 00:50:41;;;;;;;4.57;1.80;;;;;;;16.74;100.00;96688.84;4952775;28;20194;-77
2022/06/28 00:53:11;;;;;;;1.93;1.50;;;;;;;16.69;100.00;96683.34;4964506;28;20220;-77
2022/06/28 00:55:38;;;;;;;5.20;1.90;;;;;;;16.57;100.00;96683.50;4945732;28;20255;-77
2022/06/28 00:58:06;;;;;;;6.00;1.67;;;;;;;16.58;100.00;96687.06;4964940;28;20233;-77
2022/06/28 01:00:37;;;;;;;2.93;1.70;;;;;;;16.57;100.00;96688.97;4964836;28;20201;-77
2022/06/28 01:03:10;;;;;;;3.10;1.73;;;;;;;16.60;100.00;96699.31;4948720;28;20208;-77
2022/06/28 01:05:37;;;;;;;5.17;2.10;;;;;;;16.59;100.00;96700.41;4958194;28;20296;-77
2022/06/28 01:08:06;;;;;;;3.67;1.50;;;;;;;16.66;100.00;96696.69;4943990;28;20208;-76
2022/06/28 01:10:34;;;;;;;2.80;1.60;;;;;;;16.67;100.00;96701.06;4961443;28;20300;-77
2022/06/28 01:13:02;;;;;;;2.93;1.60;;;;;;;16.68;100.00;96708.94;4947722;28;20225;-77
2022/06/28 01:15:29;;;;;;;3.83;1.70;;;;;;;16.67;100.00;96712.78;4945697;28;20464;-77
2022/06/28 01:18:02;;;;;;;2.27;1.60;;;;;;;16.62;100.00;96712.72;4961752;28;20204;-76
2022/06/28 01:20:43;;;;;;;1.90;1.70;;;;;;;16.61;100.00;96720.09;4946619;28;20212;-77
2022/06/28 01:23:32;;;;;;;1.83;1.67;;;;;;;16.63;100.00;96717.09;4967986;28;20228;-77
2022/06/28 01:26:23;;;;;;;1.97;1.53;;;;;;;16.65;100.00;96728.59;4960280;28;20307;-77
2022/06/28 01:28:51;;;;;;;1.73;1.30;;;;;;;16.63;100.00;96728.84;4946474;28;20296;-77
2022/06/28 01:31:45;;;;;;;4.17;1.47;;;;;;;16.66;100.00;96735.69;4960705;28;20352;-77
2022/06/28 01:34:14;;;;;;;2.60;1.67;;;;;;;16.63;100.00;96722.56;4947208;28;20239;-77
2022/06/28 01:36:41;;;;;;;2.37;1.50;;;;;;;16.61;100.00;96725.53;4969257;28;20220;-77
2022/06/28 01:39:10;;;;;;;2.77;1.50;;;;;;;16.59;100.00;96726.84;4950832;28;20216;-77
2022/06/28 01:41:37;;;;;;;1.50;1.40;;;;;;;16.61;100.00;96714.63;4937203;28;20300;-77
2022/06/28 01:44:12;;;;;;;1.70;1.60;;;;;;;16.67;100.00;96717.41;4951226;28;20259;-77
2022/06/28 01:46:51;;;;;;;4.30;1.67;;;;;;;16.73;100.00;96716.38;4948362;28;20209;-77
2022/06/28 01:49:21;;;;;;;1.57;1.40;;;;;;;16.77;100.00;96706.56;4949543;28;20216;-77
2022/06/28 01:51:49;;;;;;;2.57;1.50;;;;;;;16.82;100.00;96703.91;4952067;28;20215;-77
2022/06/28 01:54:17;;;;;;;3.27;1.50;;;;;;;16.79;100.00;96707.13;4941422;28;20236;-77
2022/06/28 01:56:45;;;;;;;2.40;1.50;;;;;;;16.77;100.00;96712.03;4942169;28;20232;-77
2022/06/28 01:59:18;;;;;;;3.53;1.70;;;;;;;16.78;100.00;96710.94;4965427;28;20295;-77
2022/06/28 02:02:09;;;;;;;1.83;1.50;;;;;;;16.72;100.00;96703.81;4962464;28;20224;-77
2022/06/28 02:04:58;;;;;;;2.30;1.50;;;;;;;16.71;100.00;96707.63;4959147;28;20212;-77
2022/06/28 02:07:28;;;;;;;4.20;1.57;;;;;;;16.69;100.00;96701.59;4951224;28;20212;-77
2022/06/28 02:09:57;;;;;;;3.43;1.90;;;;;;;16.64;100.00;96696.94;4955025;28;20227;-77
2022/06/28 02:12:28;;;;;;;3.13;1.30;;;;;;;16.61;100.00;96692.81;4952467;28;20212;-77
2022/06/28 02:14:55;;;;;;;2.07;1.70;;;;;;;16.67;100.00;96684.69;4956111;28;20228;-77
2022/06/28 02:17:22;;;;;;;1.67;1.30;;;;;;;16.67;100.00;96688.25;4942784;28;20201;-77
2022/06/28 02:19:50;;;;;;;2.17;1.97;;;;;;;16.66;100.00;96688.50;4950380;28;20227;-77
2022/06/28 02:22:17;;;;;;;3.83;1.40;;;;;;;16.69;100.00;96693.41;4949622;28;20208;-77
2022/06/28 02:24:44;;;;;;;1.53;1.40;;;;;;;16.71;100.00;96697.53;4965088;28;20204;-76
2022/06/28 02:27:13;;;;;;;3.93;1.40;;;;;;;16.70;100.00;96695.88;4959059;28;20228;-77
2022/06/28 02:29:40;;;;;;;2.10;1.40;;;;;;;16.70;100.00;96711.44;4942666;28;20271;-77
2022/06/28 02:32:08;;;;;;;2.10;1.60;;;;;;;16.71;100.00;96707.63;4948213;28;20210;-77
2022/06/28 02:40:24;;;;;;;2.83;1.47;;;;;;;16.50;100.00;96685.59;4962460;28;20209;-77
2022/06/28 02:42:54;;;;;;;2.13;1.70;;;;;;;16.50;100.00;96685.59;4952856;28;20212;-77
2022/06/28 02:45:23;;;;;;;3.03;2.03;;;;;;;16.51;100.00;96687.25;4949586;28;20258;-77
2022/06/28 02:47:50;;;;;;;2.30;1.50;;;;;;;16.46;100.00;96689.94;4960308;28;20207;-77
2022/06/28 02:50:18;;;;;;;4.47;1.60;;;;;;;16.41;100.00;96681.72;4948636;28;20212;-77
2022/06/28 02:52:45;;;;;;;3.13;1.47;;;;;;;16.32;100.00;96669.66;4958384;28;20213;-76
2022/06/28 02:55:13;;;;;;;3.60;1.87;;;;;;;16.28;100.00;96666.59;4941874;28;20229;-76
2022/06/28 02:57:40;;;;;;;1.70;1.60;;;;;;;16.28;100.00;96666.59;4962081;28;20328;-76
2022/06/28 03:00:12;;;;;;;2.40;2.00;;;;;;;16.36;100.00;96665.31;4949551;28;20205;-76
2022/06/28 03:02:40;;;;;;;2.13;1.63;;;;;;;16.44;100.00;96669.47;4946977;28;20307;-76
2022/06/28 03:05:12;;;;;;;4.60;1.80;;;;;;;16.46;100.00;96657.22;4966814;28;20201;-76
2022/06/28 03:07:39;;;;;;;2.23;1.80;;;;;;;16.51;100.00;96657.25;4950707;28;20209;-76
2022/06/28 03:10:08;;;;;;;2.13;1.60;;;;;;;16.57;100.00;96647.25;4965923;28;20211;-76
2022/06/28 03:12:35;;;;;;;3.13;1.70;;;;;;;16.61;100.00;96637.47;4961426;28;20201;-76
2022/06/28 03:15:03;;;;;;;3.43;1.80;;;;;;;16.68;100.00;96648.97;4949451;28;20213;-76
2022/06/28 03:17:32;;;;;;;2.00;1.70;;;;;;;16.68;100.00;96637.25;4948297;28;20200;-77
2022/06/28 03:20:00;;;;;;;2.20;2.00;;;;;;;16.71;100.00;96636.72;4965103;28;20201;-77
2022/06/28 03:22:27;;;;;;;5.00;1.60;;;;;;;16.73;100.00;96623.66;4955743;28;20212;-76
2022/06/28 03:24:54;;;;;;;1.73;1.33;;;;;;;16.72;100.00;96633.75;4961522;28;20241;-77
2022/06/28 03:27:22;;;;;;;1.60;1.50;;;;;;;16.74;100.00;96639.75;4949242;28;20208;-76
2022/06/28 03:29:51;;;;;;;4.40;1.50;;;;;;;16.68;100.00;96646.25;4948211;28;20204;-76
2022/06/28 03:32:25;;;;;;;4.40;1.70;;;;;;;16.58;100.00;96655.16;4946809;28;20196;-76
2022/06/28 03:34:53;;;;;;;2.40;1.80;;;;;;;16.56;100.00;96657.31;4947828;28;20308;-76
2022/06/28 03:37:22;;;;;;;2.23;1.60;;;;;;;16.57;100.00;96661.69;4955458;28;20217;-77
2022/06/28 03:39:52;;;;;;;2.40;1.73;;;;;;;16.55;100.00;96658.41;4950008;28;20217;-76
2022/06/28 03:42:21;;;;;;;5.80;2.00;;;;;;;16.57;100.00;96675.31;4950998;28;20309;-76
2022/06/28 03:44:51;;;;;;;4.23;1.70;;;;;;;16.58;100.00;96687.06;4945941;28;20201;-76
2022/06/28 03:47:19;;;;;;;3.10;1.57;;;;;;;16.58;100.00;96693.31;4954550;28;20340;-76
2022/06/28 03:50:09;;;;;;;2.90;1.50;;;;;;;16.61;100.00;96692.00;4948691;28;20221;-76
2022/06/28 03:53:02;;;;;;;3.27;1.40;;;;;;;16.59;100.00;96684.03;4942440;28;20212;-77
2022/06/28 03:55:47;;;;;;;4.93;1.73;;;;;;;16.61;100.00;96676.47;4966635;28;20247;-76
2022/06/28 03:58:15;;;;;;;3.93;2.00;;;;;;;16.63;100.00;96673.47;4944382;28;20248;-76
2022/06/28 04:00:42;;;;;;;3.03;1.67;;;;;;;16.63;100.00;96674.31;4965739;28;20207;-77
2022/06/28 04:03:09;;;;;;;2.23;1.40;;;;;;;16.60;100.00;96673.97;4959016;28;20209;-76
2022/06/28 04:05:45;;;;;;;4.67;1.70;;;;;;;16.63;100.00;96687.94;4953991;28;20204;-76
2022/06/28 04:08:14;;;;;;;7.40;1.73;;;;;;;16.63;100.00;96678.94;4950064;28;20224;-76
2022/06/28 04:10:47;;;;;;;3.47;2.10;;;;;;;16.65;100.00;96682.22;4944403;28;20201;-77
2022/06/28 04:13:18;;;;;;;5.00;2.50;;;;;;;16.56;100.00;96670.94;4946606;28;20213;-77
2022/06/28 04:15:46;;;;;;;6.77;2.43;;;;;;;16.56;100.00;96673.69;4963748;28;20204;-77
2022/06/28 04:18:17;;;;;;;3.30;2.10;;;;;;;16.59;100.00;96683.22;4945293;28;20296;-76
2022/06/28 04:21:04;;;;;;;3.63;2.17;;;;;;;16.64;100.00;96683.31;4954141;28;20227;-76
2022/06/28 04:23:32;;;;;;;3.83;2.20;;;;;;;16.71;100.00;96680.34;4943466;28;20209;-76
2022/06/28 04:25:59;;;;;;;2.77;1.90;;;;;;;16.74;100.00;96668.94;4939544;29;20292;-76
2022/06/28 04:28:47;;;;;;;2.40;1.70;;;;;;;16.77;100.00;96668.41;4964748;28;20209;-76
2022/06/28 04:31:19;;;;;;;4.50;3.30;;;;;;;16.76;100.00;96672.22;4946221;28;20224;-76
2022/06/28 04:33:46;;;;;;;2.57;2.10;;;;;;;16.76;100.00;96666.78;4959428;28;20251;-76
2022/06/28 04:36:15;;;;;;;2.40;2.10;;;;;;;16.74;100.00;96674.38;4958039;28;20240;-75
2022/06/28 04:38:47;;;;;;;2.10;1.90;;;;;;;16.75;100.00;96670.59;4959614;28;20217;-75
2022/06/28 04:41:24;;;;;;;2.57;1.90;;;;;;;16.79;100.00;96652.59;4949589;28;20204;-76
2022/06/28 04:44:02;;;;;;;2.27;1.50;;;;;;;16.85;100.00;96657.00;4940903;28;20213;-76
2022/06/28 04:46:32;;;;;;;2.20;1.80;;;;;;;16.94;100.00;96649.97;4946908;28;20220;-76
2022/06/28 04:49:04;;;;;;;3.13;1.73;;;;;;;16.95;100.00;96660.63;4940079;28;20216;-76
2022/06/28 04:51:43;;;;;;;6.20;2.30;;;;;;;17.05;100.00;96650.84;4956410;28;20203;-76
2022/06/28 04:54:13;;;;;;;2.87;1.93;;;;;;;17.07;100.00;96663.16;4948851;28;20226;-76
2022/06/28 04:57:00;;;;;;;2.03;1.70;;;;;;;17.00;100.00;96649.75;4969771;28;20243;-76
2022/06/28 04:59:28;;;;;;;4.00;2.10;;;;;;;17.06;100.00;96650.59;4951807;28;20204;-76
2022/06/28 05:01:55;;;;;;;2.33;2.00;;;;;;;17.11;100.00;96649.78;4964066;28;20204;-76
2022/06/28 05:04:23;;;;;;;3.23;2.00;;;;;;;17.13;100.00;96651.19;4951071;28;20300;-76
2022/06/28 05:07:20;;;;;;;6.97;2.33;;;;;;;17.17;100.00;96646.03;4958078;28;20228;-78
2022/06/28 05:09:48;;;;;;;4.90;2.00;;;;;;;17.14;100.00;96641.09;4949265;28;20231;-77
2022/06/28 05:12:15;;;;;;;2.47;1.90;;;;;;;17.14;100.00;96646.53;4948887;28;20208;-76
2022/06/28 05:14:42;;;;;;;2.57;1.87;;;;;;;17.14;100.00;96646.53;4946277;28;20232;-76
2022/06/28 05:17:12;;;;;;;3.07;1.90;;;;;;;17.15;100.00;96640.84;4948523;28;20282;-76
2022/06/28 05:19:39;;;;;;;3.10;2.80;;;;;;;17.16;100.00;96645.22;4947723;28;20216;-76
2022/06/28 05:22:08;;;;;;;2.87;2.10;;;;;;;17.15;100.00;96659.94;4963393;28;20211;-77
2022/06/28 05:24:45;;;;;;;3.23;2.30;;;;;;;17.12;100.00;96668.63;4951723;28;20205;-76
2022/06/28 05:27:12;;;;;;;4.93;2.30;;;;;;;17.16;100.00;96671.66;4963054;28;20213;-77
2022/06/28 05:29:40;;;;;;;2.73;2.07;;;;;;;17.19;100.00;96671.13;4956333;28;20208;-77
2022/06/28 05:32:09;;;;;;;2.00;1.87;;;;;;;17.27;100.00;96659.69;4951378;28;20201;-77
2022/06/28 05:34:36;;;;;;;2.10;1.90;;;;;;;17.32;100.00;96655.13;4954117;28;20257;-77
2022/06/28 05:37:05;;;;;;;2.23;1.80;;;;;;;17.33;100.00;96651.31;4944965;28;20290;-77
2022/06/28 05:39:32;;;;;;;2.17;1.60;;;;;;;17.32;100.00;96652.38;4943306;28;20216;-77
2022/06/28 05:42:01;;;;;;;2.83;2.03;;;;;;;17.31;100.00;96645.28;4953315;28;20216;-77
2022/06/28 05:44:28;;;;;;;1.87;1.67;;;;;;;17.31;100.00;96623.44;4953795;28;20334;-77
2022/06/28 05:46:55;;;;;;;3.70;1.70;;;;;;;17.30;100.00;96607.31;4954131;28;20219;-78
2022/06/28 05:49:22;;;;;;;3.43;1.90;;;;;;;17.39;100.00;96622.94;4945756;28;20220;-77
2022/06/28 05:51:49;;;;;;;3.27;1.80;;;;;;;17.31;100.00;96608.97;4953687;28;20251;-77
2022/06/28 05:54:16;;;;;;;1.93;1.47;;;;;;;17.37;100.00;96614.19;4968276;28;20235;-77
2022/06/28 05:56:43;;;;;;;2.80;1.70;;;;;;;17.38;100.00;96610.38;4954238;28;20271;-77
2022/06/28 05:59:13;;;;;;;1.97;1.50;;;;;;;17.42;100.00;96605.22;4969342;28;20318;-77
2022/06/28 06:01:40;;;;;;;2.67;1.60;;;;;;;17.46;100.00;96605.47;4952990;28;20224;-76
2022/06/28 06:04:08;;;;;;;2.27;1.60;;;;;;;17.55;100.00;96592.94;4943164;28;20308;-76
2022/06/28 06:06:35;;;;;;;4.07;1.93;;;;;;;17.59;100.00;96594.91;4962718;28;20368;-76
2022/06/28 06:09:03;;;;;;;2.50;2.10;;;;;;;17.60;100.00;96601.19;4942095;28;20209;-76
2022/06/28 06:11:30;;;;;;;4.07;2.27;;;;;;;17.44;100.00;96596.75;4945980;28;20216;-76
2022/06/28 06:13:57;;;;;;;2.00;1.80;;;;;;;17.37;100.00;96591.53;4947957;28;20304;-75
2022/06/28 06:16:26;;;;;;;2.30;2.10;;;;;;;17.32;100.00;96584.16;4947147;28;20213;-76
2022/06/28 06:18:56;;;;;;;4.10;2.40;;;;;;;17.32;100.00;96581.41;4961655;28;20216;-76
2022/06/28 06:21:24;;;;;;;3.53;2.53;;;;;;;17.40;100.00;96585.53;4947026;28;20236;-76
2022/06/28 06:23:51;;;;;;;3.30;2.03;;;;;;;17.49;100.00;96577.66;4940407;28;20212;-76
2022/06/28 06:26:38;;;;;;;4.57;2.10;;;;;;;17.43;100.00;96585.00;4965187;28;20216;-76
2022/06/28 06:29:05;;;;;;;2.63;2.43;;;;;;;17.40;100.00;96591.81;4951222;28;20217;-76
2022/06/28 06:31:33;;;;;;;2.83;1.90;;;;;;;17.30;100.00;96591.78;4958582;28;20217;-76
2022/06/28 06:34:06;;;;;;;3.60;2.07;;;;;;;17.24;100.00;96598.31;4963322;28;20239;-76
2022/06/28 06:36:46;;;;;;;2.77;2.30;;;;;;;17.25;100.00;96588.22;4948554;28;20213;-76
2022/06/28 06:39:14;;;;;;;4.30;2.60;;;;;;;17.33;100.00;96569.41;4944510;28;20255;-76
2022/06/28 06:41:42;;;;;;;4.17;1.87;;;;;;;17.46;100.00;96567.25;4949790;28;20201;-77
2022/06/28 06:44:09;;;;;;;3.47;1.90;;;;;;;17.45;100.00;96562.88;4963401;28;20220;-76
2022/06/28 06:46:38;;;;;;;3.33;1.80;;;;;;;17.53;100.00;96555.00;4949073;28;20197;-76
2022/06/28 06:49:08;;;;;;;2.43;2.00;;;;;;;17.71;100.00;96559.16;4963252;28;20197;-76
2022/06/28 06:51:35;;;;;;;2.90;1.90;;;;;;;17.79;100.00;96534.03;4963906;28;20212;-76
2022/06/28 06:54:02;;;;;;;3.13;1.87;;;;;;;17.91;100.00;96523.69;4945380;28;20220;-76
2022/06/28 06:56:31;;;;;;;4.07;1.80;;;;;;;18.00;100.00;96518.50;4949233;28;20217;-76
2022/06/28 06:58:58;;;;;;;2.30;1.87;;;;;;;17.99;100.00;96531.34;4949591;28;20229;-76
2022/06/28 07:01:29;;;;;;;2.50;2.10;;;;;;;17.95;100.00;96504.84;4950122;28;20201;-76
2022/06/28 07:03:58;;;;;;;2.23;1.70;;;;;;;17.92;100.00;96506.22;4940168;28;20256;-76
2022/06/28 07:06:25;;;;;;;4.77;1.80;;;;;;;17.80;100.00;96497.44;4954695;28;20211;-76
2022/06/28 07:08:53;;;;;;;2.53;1.73;;;;;;;17.76;100.00;96493.63;4942633;28;20201;-76
2022/06/28 07:11:23;;;;;;;3.80;2.07;;;;;;;17.55;100.00;96476.38;4964038;28;20251;-76
2022/06/28 07:13:51;;;;;;;3.63;1.80;;;;;;;17.46;100.00;96466.25;4938991;28;20233;-76
2022/06/28 07:16:19;;;;;;;2.40;1.70;;;;;;;17.55;100.00;96468.19;4936307;28;20316;-76
2022/06/28 07:18:46;;;;;;;2.63;1.80;;;;;;;17.74;100.00;96476.69;4961245;28;20216;-75
2022/06/28 07:21:14;;;;;;;1.87;1.57;;;;;;;17.71;100.00;96475.31;4966876;28;20215;-76
2022/06/28 07:23:42;;;;;;;1.67;1.57;;;;;;;17.72;100.00;96478.88;4942695;28;20202;-77
2022/06/28 07:26:09;;;;;;;3.43;1.80;;;;;;;17.71;100.00;96479.97;4952086;28;20212;-77
2022/06/28 07:28:37;;;;;;;2.40;1.53;;;;;;;17.60;100.00;96454.56;4935873;28;20240;-77
2022/06/28 07:31:05;;;;;;;2.87;1.40;;;;;;;17.65;100.00;96445.56;4940210;28;20223;-76
2022/06/28 07:33:32;;;;;;;2.23;1.60;;;;;;;17.66;100.00;96430.81;4937490;28;20217;-77
2022/06/28 07:35:59;;;;;;;2.07;1.50;;;;;;;17.72;100.00;96440.63;4960003;28;20234;-76
2022/06/28 07:38:29;;;;;;;1.63;1.40;;;;;;;17.74;100.00;96442.00;4938007;28;20220;-77
2022/06/28 07:41:15;;;;;;;4.37;2.23;;;;;;;17.79;100.00;96430.25;4951951;28;20208;-76
2022/06/28 07:44:08;;;;;;;1.93;1.50;;;;;;;17.66;100.00;96439.84;4950852;28;20213;-76
2022/06/28 07:46:37;;;;;;;1.50;1.40;;;;;;;17.66;100.00;96444.47;4949399;28;20558;-75
2022/06/28 07:49:04;;;;;;;2.63;1.60;;;;;;;17.66;100.00;96452.66;4944193;28;20216;-76
2022/06/28 07:54:20;;;;;;;1.40;1.30;;;;;;;17.38;100.00;96399.38;4949401;28;20335;-76
2022/06/28 07:57:16;;;;;;;1.30;1.20;;;;;;;17.33;100.00;96396.66;4942998;28;20236;-76
2022/06/28 07:59:45;;;;;;;1.83;1.50;;;;;;;17.40;100.00;96384.38;4934069;28;20212;-76
2022/06/28 08:02:13;;;;;;;2.80;1.60;;;;;;;17.44;100.00;96367.47;4937640;28;20209;-76
2022/06/28 08:04:43;;;;;;;1.50;1.40;;;;;;;17.37;100.00;96379.44;4936705;28;20316;-76
2022/06/28 08:07:11;;;;;;;2.10;1.30;;;;;;;17.31;100.00;96407.84;4953710;28;20221;-76
2022/06/28 08:09:39;;;;;;;1.57;1.47;;;;;;;17.23;100.00;96402.91;4955630;28;20201;-76
2022/06/28 08:12:08;;;;;;;2.57;1.30;;;;;;;17.07;100.00;96376.69;4943237;28;20342;-76
2022/06/28 08:14:36;;;;;;;3.27;1.30;;;;;;;17.05;100.00;96378.88;4924412;28;20205;-76
2022/06/28 08:17:05;;;;;;;1.40;1.30;;;;;;;17.07;100.00;96394.97;4950735;28;20268;-76
2022/06/28 08:19:32;;;;;;;1.40;1.30;;;;;;;17.14;100.00;96396.34;4952984;28;20201;-76
2022/06/28 08:22:00;;;;;;;2.70;1.47;;;;;;;17.22;100.00;96381.34;4935356;28;20197;-76
2022/06/28 08:24:27;;;;;;;3.23;1.30;;;;;;;17.23;100.00;96381.09;4946187;28;20224;-76
2022/06/28 08:26:55;;;;;;;2.10;1.50;;;;;;;17.24;100.00;96404.56;4928529;28;20295;-76
2022/06/28 08:29:23;;;;;;;2.13;1.40;;;;;;;17.12;100.00;96409.44;4932218;28;20295;-76
2022/06/28 08:31:50;;;;;;;1.97;1.60;;;;;;;16.94;100.00;96418.13;4950481;28;20204;-76
2022/06/28 08:34:17;;;;;;;1.70;1.60;;;;;;;16.96;100.00;96443.22;4936211;28;20215;-76
2022/06/28 08:36:44;;;;;;;6.83;6.03;;;;;;;16.98;100.00;96463.69;4947419;28;20224;-76
2022/06/28 08:39:11;;;;;;;1.57;1.47;;;;;;;17.04;100.00;96469.97;4947843;28;20220;-76
2022/06/28 08:41:41;;;;;;;2.00;1.80;;;;;;;17.05;100.00;96471.63;4946408;28;20217;-76
2022/06/28 08:44:10;;;;;;;1.90;1.70;;;;;;;17.00;100.00;96483.34;4947466;28;20212;-76
2022/06/28 08:46:38;;;;;;;3.37;1.80;;;;;;;17.01;100.00;96495.09;4929121;28;20323;-76
2022/06/28 08:49:11;;;;;;;1.47;1.37;;;;;;;17.03;100.00;96509.25;4934281;28;20208;-76
2022/06/28 08:51:39;;;;;;;1.80;1.60;;;;;;;16.96;100.00;96523.16;4954238;28;20284;-76
2022/06/28 08:54:07;;;;;;;2.60;1.60;;;;;;;16.94;100.00;96533.50;4930603;28;20300;-76
2022/06/28 08:56:38;;;;;;;4.73;1.77;;;;;;;16.99;100.00;96528.09;4933323;28;20240;-76
2022/06/28 08:59:07;;;;;;;2.50;1.40;;;;;;;17.01;100.00;96520.44;4932667;28;20240;-76
2022/06/28 09:01:35;;;;;;;1.77;1.67;;;;;;;17.06;100.00;96541.47;4936149;28;20344;-76
2022/06/28 09:04:05;;;;;;;2.17;1.60;;;;;;;17.08;100.00;96525.66;4934361;28;20357;-76
2022/06/28 09:06:32;;;;;;;1.60;1.50;;;;;;;17.09;100.00;96502.75;4930362;28;20208;-76
2022/06/28 09:08:59;;;;;;;3.63;1.80;;;;;;;17.14;100.00;96482.84;4947063;28;20205;-76
2022/06/28 09:11:26;;;;;;;4.73;2.47;;;;;;;17.23;100.00;96482.06;4950639;28;20208;-75
2022/06/28 09:13:53;;;;;;;2.97;2.27;;;;;;;17.23;100.00;96470.31;4949278;28;20216;-75
2022/06/28 09:16:20;;;;;;;1.70;1.60;;;;;;;17.22;100.00;96464.03;4936449;28;20393;-75
2022/06/28 09:18:49;;;;;;;1.57;1.40;;;;;;;17.18;100.00;96473.84;4937311;28;20225;-76
2022/06/28 09:21:19;;;;;;;3.30;1.60;;;;;;;17.20;100.00;96465.38;4948708;28;20221;-76
2022/06/28 09:23:48;;;;;;;1.87;1.60;;;;;;;17.22;100.00;96455.03;4952033;28;20209;-76
2022/06/28 09:26:17;;;;;;;3.53;1.83;;;;;;;17.20;100.00;96443.56;4954077;28;20233;-76
2022/06/28 09:28:46;;;;;;;3.97;2.20;;;;;;;17.16;100.00;96437.84;4936726;28;20210;-76
2022/06/28 09:31:18;;;;;;;2.90;1.93;;;;;;;17.10;100.00;96454.47;4961826;28;20213;-76
2022/06/28 09:33:47;;;;;;;4.13;2.53;;;;;;;17.17;100.00;96435.94;4962665;28;20223;-76
2022/06/28 09:36:18;;;;;;;3.83;1.87;;;;;;;17.18;100.00;96441.09;4954768;28;20248;-76
2022/06/28 09:38:46;;;;;;;3.90;1.80;;;;;;;17.14;100.00;96450.91;4941377;28;20251;-76
2022/06/28 09:41:21;;;;;;;2.47;1.90;;;;;;;17.07;100.00;96455.00;4941726;28;20263;-76
2022/06/28 09:43:59;;;;;;;2.27;1.97;;;;;;;17.08;100.00;96452.00;4943685;28;20200;-76
2022/06/28 09:46:29;;;;;;;2.13;1.90;;;;;;;17.08;100.00;96462.91;4945273;28;20204;-76
2022/06/28 09:48:58;;;;;;;2.27;1.70;;;;;;;17.04;100.00;96467.25;4946187;28;20213;-76
2022/06/28 09:51:29;;;;;;;3.93;2.50;;;;;;;17.05;100.00;96468.91;4949161;28;20220;-76
2022/06/28 09:53:58;;;;;;;2.50;2.17;;;;;;;17.07;100.00;96455.81;4972975;28;20209;-77
2022/06/28 09:56:27;;;;;;;2.87;2.07;;;;;;;17.02;100.00;96453.06;4953551;28;20235;-77
2022/06/28 09:58:55;;;;;;;2.47;2.27;;;;;;;16.94;100.00;96442.66;4972736;28;20243;-76
2022/06/28 10:01:22;;;;;;;2.43;2.23;;;;;;;16.95;100.00;96428.75;4964279;28;20224;-76
2022/06/28 10:03:50;;;;;;;2.83;2.07;;;;;;;17.02;100.00;96444.88;4952226;28;20225;-76
2022/06/28 10:06:19;;;;;;;2.27;2.00;;;;;;;17.10;100.00;96422.50;4947318;28;20210;-75
2022/06/28 10:08:49;;;;;;;3.87;3.30;;;;;;;17.16;100.00;96426.91;4946907;28;20213;-76
2022/06/28 10:11:17;;;;;;;3.00;2.70;;;;;;;17.22;100.00;96442.19;4963915;28;20212;-75
2022/06/28 10:16:46;;;;;;;1.87;1.73;;;;;;;17.19;100.00;96423.63;4966205;28;20224;-76
2022/06/28 10:19:17;;;;;;;1.60;1.50;;;;;;;17.20;100.00;96408.91;4945689;28;20208;-76
2022/06/28 10:21:46;;;;;;;4.03;1.90;;;;;;;17.16;100.00;96383.25;4947479;28;20220;-76
2022/06/28 10:24:15;;;;;;;4.27;1.90;;;;;;;17.26;100.00;96358.72;4964057;28;20216;-75
2022/06/28 10:26:46;;;;;;;2.57;2.03;;;;;;;17.35;100.00;96351.59;4950397;28;20275;-76
2022/06/28 10:29:15;;;;;;;2.60;1.87;;;;;;;17.47;100.00;96350.50;4957687;28;20216;-75
2022/06/28 10:31:43;;;;;;;6.63;2.40;;;;;;;17.54;100.00;96342.84;4947641;28;20212;-76
2022/06/28 10:34:13;;;;;;;1.63;1.53;;;;;;;17.56;100.00;96341.50;4950915;28;20220;-75
2022/06/28 10:36:51;;;;;;;3.43;2.30;;;;;;;17.38;100.00;96351.06;4952791;28;20229;-76
2022/06/28 10:39:29;;;;;;;4.47;2.50;;;;;;;17.38;100.00;96378.34;4948381;28;20216;-76
2022/06/28 10:42:08;;;;;;;2.93;2.07;;;;;;;17.40;100.00;96365.25;4955574;28;20291;-76
2022/06/28 10:44:47;;;;;;;4.27;2.60;;;;;;;17.46;100.00;96366.06;4940804;28;20250;-76
2022/06/28 10:47:16;;;;;;;5.03;3.50;;;;;;;17.51;100.00;96376.19;4947847;28;20216;-75
2022/06/28 10:50:00;;;;;;;6.20;2.50;;;;;;;17.46;100.00;96378.91;4947259;28;20213;-76
2022/06/28 10:52:32;;;;;;;2.33;2.13;;;;;;;17.49;100.00;96375.63;4945729;28;20217;-76
2022/06/28 10:55:23;;;;;;;3.17;2.20;;;;;;;17.55;100.00;96374.53;4946403;28;20213;-75
2022/06/28 10:58:07;;;;;;;4.50;2.30;;;;;;;17.63;100.00;96377.56;4962336;28;20252;-76
2022/06/28 11:00:35;;;;;;;2.50;2.30;;;;;;;17.69;100.00;96387.38;4942849;28;20211;-75
2022/06/28 11:03:04;;;;;;;5.77;2.47;;;;;;;17.70;100.00;96377.28;4947440;28;20316;-74
2022/06/28 11:05:51;;;;;;;3.50;2.37;;;;;;;17.76;100.00;96378.94;4957223;28;20215;-76
2022/06/28 11:08:35;;;;;;;2.73;2.33;;;;;;;17.87;100.00;96377.81;4946505;28;20223;-76
2022/06/28 11:11:05;;;;;;;4.57;2.53;;;;;;;17.96;100.00;96370.69;4944725;28;20297;-76
2022/06/28 11:13:32;;;;;;;3.00;2.47;;;;;;;17.98;100.00;96373.97;4950871;28;20209;-76
2022/06/28 11:16:00;;;;;;;5.17;2.57;;;;;;;17.95;100.00;96369.03;4944158;28;20225;-76
2022/06/28 11:18:27;;;;;;;2.60;2.40;;;;;;;17.85;100.00;96401.88;4963066;28;20223;-77
2022/06/28 11:20:54;;;;;;;2.17;1.97;;;;;;;17.85;100.00;96418.25;4963872;28;20303;-76
2022/06/28 11:23:25;;;;;;;2.40;2.20;;;;;;;17.82;100.00;96407.03;4951396;28;20215;-77
2022/06/28 11:28:56;;;;;;;3.73;2.10;;;;;;;17.90;100.00;96401.03;4965922;28;20290;-76
2022/06/28 11:31:25;;;;;;;6.20;2.27;;;;;;;17.98;100.00;96406.75;4955818;28;20216;-77
2022/06/28 11:33:52;;;;;;;3.63;2.40;;;;;;;17.96;100.00;96414.41;4945938;28;20201;-77
2022/06/28 11:36:28;;;;;;;3.73;2.20;;;;;;;17.99;100.00;96424.78;4945797;28;20225;-77
2022/06/28 11:38:55;;;;;;;3.13;2.27;;;;;;;17.95;100.00;96431.09;4955058;28;20209;-77
2022/06/28 11:41:29;;;;;;;2.93;2.30;;;;;;;17.99;100.00;96446.66;4962914;28;20217;-77
2022/06/28 11:43:59;;;;;;;3.27;2.50;;;;;;;18.00;100.00;96442.00;4943594;28;20209;-77
2022/06/28 11:46:28;;;;;;;5.23;2.13;;;;;;;17.87;100.00;96429.69;4945296;28;20308;-77
2022/06/28 11:48:56;;;;;;;5.40;2.30;;;;;;;17.87;100.00;96432.44;4948921;28;20204;-77
2022/06/28 11:51:30;;;;;;;2.20;1.97;;;;;;;17.79;100.00;96433.00;4949587;28;20221;-78
2022/06/28 11:53:57;;;;;;;2.90;2.20;;;;;;;17.70;100.00;96440.09;4966027;28;20216;-78